createdAt,value
2016-09-08T00:00:30.151Z,20.82
2016-09-08T00:01:30.140Z,20.81
2016-09-08T00:02:30.134Z,20.97
2016-09-08T00:03:29.813Z,20.82
2016-09-08T00:04:30.106Z,20.74
2016-09-08T00:05:30.165Z,20.73
2016-09-08T00:06:30.077Z,20.6
2016-09-08T00:07:30.072Z,20.63
2016-09-08T00:08:30.063Z,20.66
2016-09-08T00:09:30.040Z,20.63
2016-09-08T00:10:30.028Z,20.54
2016-09-08T00:11:29.696Z,20.51
2016-09-08T00:12:29.685Z,20.6
2016-09-08T00:13:30.003Z,20.62
2016-09-08T00:14:29.996Z,20.58
2016-09-08T00:15:29.974Z,20.55
2016-09-08T00:16:29.635Z,20.69
2016-09-08T00:17:29.631Z,20.69
2016-09-08T00:18:29.944Z,20.72
2016-09-08T00:19:29.276Z,20.58
2016-09-08T00:20:29.920Z,20.49
2016-09-08T00:21:29.901Z,20.6
2016-09-08T00:22:29.893Z,20.57
2016-09-08T00:23:29.882Z,20.49
2016-09-08T00:24:29.853Z,20.49
2016-09-08T00:25:29.849Z,20.66
2016-09-08T00:26:29.832Z,20.54
2016-09-08T00:27:29.511Z,20.48
2016-09-08T00:28:29.821Z,20.62
2016-09-08T00:29:29.161Z,20.51
2016-09-08T00:30:29.481Z,20.66
2016-09-08T00:31:29.782Z,20.69
2016-09-08T00:32:29.443Z,20.54
2016-09-08T00:33:29.783Z,20.58
2016-09-08T00:34:29.749Z,20.62
2016-09-08T00:35:29.743Z,20.67
2016-09-08T00:36:29.405Z,20.54
2016-09-08T00:37:29.724Z,20.62
2016-09-08T00:38:29.379Z,20.54
2016-09-08T00:39:29.683Z,20.54
2016-09-08T00:40:29.667Z,20.54
2016-09-08T00:41:29.660Z,20.52
2016-09-08T00:42:29.642Z,20.57
2016-09-08T00:43:29.312Z,20.4
2016-09-08T00:44:29.622Z,20.49
2016-09-08T00:45:29.614Z,20.49
2016-09-08T00:46:29.603Z,20.44
2016-09-08T00:47:29.277Z,20.49
2016-09-08T00:48:29.253Z,20.49
2016-09-08T00:49:29.552Z,20.49
2016-09-08T00:50:29.242Z,20.49
2016-09-08T00:51:29.543Z,20.48
2016-09-08T00:52:29.213Z,20.47
2016-09-08T00:53:29.511Z,20.38
2016-09-08T00:54:29.509Z,20.48
2016-09-08T00:55:29.479Z,20.44
2016-09-08T00:56:29.170Z,20.33
2016-09-08T00:57:29.481Z,20.38
2016-09-08T00:58:29.463Z,20.4
2016-09-08T00:59:29.126Z,20.28
2016-09-08T01:00:29.500Z,20.33
2016-09-08T01:01:29.101Z,20.43
2016-09-08T01:02:29.082Z,20.38
2016-09-08T01:03:29.396Z,20.44
2016-09-08T01:04:29.103Z,20.4
2016-09-08T01:05:29.368Z,20.33
2016-09-08T01:06:28.733Z,20.36
2016-09-08T01:07:29.339Z,20.43
2016-09-08T01:08:29.329Z,20.31
2016-09-08T01:09:29.072Z,20.49
2016-09-08T01:10:29.339Z,20.4
2016-09-08T01:11:29.283Z,20.38
2016-09-08T01:12:29.269Z,20.41
2016-09-08T01:13:29.281Z,20.25
2016-09-08T01:14:29.310Z,20.23
2016-09-08T01:15:29.252Z,20.25
2016-09-08T01:16:29.292Z,20.22
2016-09-08T01:17:29.223Z,20.31
2016-09-08T01:18:29.212Z,20.33
2016-09-08T01:19:29.198Z,20.31
2016-09-08T01:20:29.181Z,20.35
2016-09-08T01:21:28.859Z,20.38
2016-09-08T01:22:28.517Z,20.31
2016-09-08T01:23:29.185Z,20.29
2016-09-08T01:24:29.120Z,20.31
2016-09-08T01:25:29.114Z,20.36
2016-09-08T01:26:29.116Z,20.33
2016-09-08T01:27:29.111Z,20.38
2016-09-08T01:28:29.080Z,20.32
2016-09-08T01:29:29.070Z,20.23
2016-09-08T01:30:29.061Z,20.2
2016-09-08T01:31:29.059Z,20.2
2016-09-08T01:32:28.712Z,20.17
2016-09-08T01:33:29.009Z,20.17
2016-09-08T01:34:28.369Z,20.13
2016-09-08T01:35:28.687Z,20.07
2016-09-08T01:36:28.680Z,19.98
2016-09-08T01:37:28.655Z,20.1
2016-09-08T01:38:28.962Z,19.98
2016-09-08T01:39:28.641Z,20.03
2016-09-08T01:40:28.617Z,19.93
2016-09-08T01:41:28.932Z,19.89
2016-09-08T01:42:28.597Z,19.86
2016-09-08T01:43:28.308Z,19.81
2016-09-08T01:44:28.603Z,19.77
2016-09-08T01:45:28.871Z,19.77
2016-09-08T01:46:28.853Z,19.81
2016-09-08T01:47:28.513Z,19.76
2016-09-08T01:48:28.195Z,19.73
2016-09-08T01:49:28.510Z,19.67
2016-09-08T01:50:28.817Z,19.74
2016-09-08T01:51:28.798Z,19.67
2016-09-08T01:52:28.792Z,19.59
2016-09-08T01:53:28.447Z,19.53
2016-09-08T01:54:28.448Z,19.52
2016-09-08T01:55:28.431Z,19.44
2016-09-08T01:56:28.731Z,19.51
2016-09-08T01:57:28.712Z,19.53
2016-09-08T01:58:28.695Z,19.59
2016-09-08T01:59:28.702Z,19.66
2016-09-08T02:00:28.364Z,19.67
2016-09-08T02:01:28.764Z,19.76
2016-09-08T02:02:28.337Z,19.71
2016-09-08T02:03:28.008Z,19.71
2016-09-08T02:04:28.680Z,19.73
2016-09-08T02:05:28.297Z,19.69
2016-09-08T02:06:28.602Z,19.76
2016-09-08T02:07:28.283Z,19.77
2016-09-08T02:08:28.265Z,19.71
2016-09-08T02:09:28.575Z,19.74
2016-09-08T02:10:28.239Z,19.71
2016-09-08T02:11:28.557Z,19.73
2016-09-08T02:12:28.205Z,19.7
2016-09-08T02:13:28.571Z,19.67
2016-09-08T02:14:28.189Z,19.63
2016-09-08T02:15:28.516Z,19.63
2016-09-08T02:16:28.477Z,19.69
2016-09-08T02:17:28.469Z,19.55
2016-09-08T02:18:28.469Z,19.66
2016-09-08T02:19:28.500Z,19.59
2016-09-08T02:20:28.445Z,19.67
2016-09-08T02:21:28.088Z,19.55
2016-09-08T02:22:28.414Z,19.56
2016-09-08T02:23:28.393Z,19.58
2016-09-08T02:24:28.061Z,19.51
2016-09-08T02:25:28.350Z,19.56
2016-09-08T02:26:28.032Z,19.52
2016-09-08T02:27:28.340Z,19.52
2016-09-08T02:28:28.336Z,19.53
2016-09-08T02:29:27.991Z,19.48
2016-09-08T02:30:27.650Z,19.49
2016-09-08T02:31:28.286Z,19.51
2016-09-08T02:32:28.289Z,19.52
2016-09-08T02:33:28.271Z,19.48
2016-09-08T02:34:27.603Z,19.51
2016-09-08T02:35:27.911Z,19.43
2016-09-08T02:36:27.903Z,19.38
2016-09-08T02:37:28.201Z,19.51
2016-09-08T02:38:28.192Z,19.51
2016-09-08T02:39:28.194Z,19.53
2016-09-08T02:40:28.176Z,19.55
2016-09-08T02:41:28.171Z,19.51
2016-09-08T02:42:27.824Z,19.55
2016-09-08T02:43:27.812Z,19.56
2016-09-08T02:44:28.131Z,19.4
2016-09-08T02:45:28.106Z,19.49
2016-09-08T02:46:27.760Z,19.48
2016-09-08T02:47:27.765Z,19.46
2016-09-08T02:48:28.067Z,19.4
2016-09-08T02:49:28.061Z,19.38
2016-09-08T02:50:28.030Z,19.4
2016-09-08T02:51:28.041Z,19.41
2016-09-08T02:52:28.010Z,19.44
2016-09-08T02:53:27.675Z,19.3
2016-09-08T02:54:27.987Z,19.43
2016-09-08T02:55:27.980Z,19.41
2016-09-08T02:56:27.967Z,19.34
2016-09-08T02:57:27.961Z,19.34
2016-09-08T02:58:27.941Z,19.3
2016-09-08T02:59:27.925Z,19.4
2016-09-08T03:00:27.911Z,19.36
2016-09-08T03:01:27.904Z,19.37
2016-09-08T03:02:27.887Z,19.22
2016-09-08T03:03:27.881Z,19.23
2016-09-08T03:04:27.862Z,19.28
2016-09-08T03:05:27.854Z,19.23
2016-09-08T03:06:27.521Z,19.23
2016-09-08T03:07:27.191Z,19.33
2016-09-08T03:08:27.161Z,19.22
2016-09-08T03:09:27.793Z,19.19
2016-09-08T03:10:27.780Z,19.34
2016-09-08T03:11:27.758Z,19.19
2016-09-08T03:12:27.451Z,19.22
2016-09-08T03:13:27.777Z,19.22
2016-09-08T03:14:27.723Z,19.18
2016-09-08T03:15:27.708Z,19.18
2016-09-08T03:16:27.708Z,19.18
2016-09-08T03:17:27.044Z,19.25
2016-09-08T03:18:27.670Z,19.21
2016-09-08T03:19:27.661Z,19.26
2016-09-08T03:20:27.332Z,19.16
2016-09-08T03:21:27.640Z,19.19
2016-09-08T03:22:27.703Z,19.12
2016-09-08T03:23:27.292Z,19.16
2016-09-08T03:24:27.602Z,19.06
2016-09-08T03:25:27.580Z,19.14
2016-09-08T03:26:27.581Z,19
2016-09-08T03:27:27.229Z,18.97
2016-09-08T03:28:27.580Z,18.96
2016-09-08T03:29:27.532Z,19.02
2016-09-08T03:30:27.592Z,19.02
2016-09-08T03:31:27.514Z,19.06
2016-09-08T03:32:27.490Z,19.02
2016-09-08T03:33:26.841Z,18.95
2016-09-08T03:34:27.467Z,19.08
2016-09-08T03:35:27.449Z,19.04
2016-09-08T03:36:27.500Z,18.99
2016-09-08T03:37:27.117Z,18.93
2016-09-08T03:38:27.433Z,19.04
2016-09-08T03:39:27.078Z,19.06
2016-09-08T03:40:27.389Z,19.07
2016-09-08T03:41:27.395Z,18.97
2016-09-08T03:42:27.370Z,19.02
2016-09-08T03:43:27.030Z,19.06
2016-09-08T03:44:27.024Z,18.97
2016-09-08T03:45:26.989Z,18.99
2016-09-08T03:46:26.999Z,18.99
2016-09-08T03:47:27.286Z,18.96
2016-09-08T03:48:27.351Z,18.93
2016-09-08T03:49:27.260Z,18.99
2016-09-08T03:50:27.254Z,18.95
2016-09-08T03:51:27.240Z,18.88
2016-09-08T03:52:27.225Z,18.9
2016-09-08T03:53:27.207Z,18.85
2016-09-08T03:54:27.207Z,18.93
2016-09-08T03:55:26.891Z,18.88
2016-09-08T03:56:27.228Z,18.85
2016-09-08T03:57:26.832Z,18.9
2016-09-08T03:58:26.846Z,18.88
2016-09-08T03:59:27.182Z,18.92
2016-09-08T04:00:27.168Z,18.87
2016-09-08T04:01:27.151Z,18.82
2016-09-08T04:02:27.174Z,18.95
2016-09-08T04:03:26.767Z,18.88
2016-09-08T04:04:27.078Z,18.9
2016-09-08T04:05:27.060Z,18.8
2016-09-08T04:06:26.751Z,18.82
2016-09-08T04:07:27.080Z,18.82
2016-09-08T04:08:26.703Z,18.75
2016-09-08T04:09:27.016Z,18.82
2016-09-08T04:10:27.014Z,18.77
2016-09-08T04:11:26.715Z,18.82
2016-09-08T04:12:26.629Z,18.65
2016-09-08T04:13:26.959Z,18.65
2016-09-08T04:14:26.929Z,18.66
2016-09-08T04:15:26.594Z,18.65
2016-09-08T04:16:26.906Z,18.65
2016-09-08T04:17:26.907Z,18.63
2016-09-08T04:18:26.556Z,18.65
2016-09-08T04:19:26.867Z,18.67
2016-09-08T04:20:26.860Z,18.73
2016-09-08T04:21:26.510Z,18.66
2016-09-08T04:22:26.836Z,18.67
2016-09-08T04:23:26.817Z,18.74
2016-09-08T04:24:26.481Z,18.7
2016-09-08T04:25:26.790Z,18.66
2016-09-08T04:26:26.789Z,18.69
2016-09-08T04:27:26.770Z,18.69
2016-09-08T04:28:26.760Z,18.63
2016-09-08T04:29:26.447Z,18.73
2016-09-08T04:30:26.739Z,18.65
2016-09-08T04:31:26.732Z,18.66
2016-09-08T04:32:26.678Z,18.67
2016-09-08T04:33:26.709Z,18.66
2016-09-08T04:34:26.337Z,18.63
2016-09-08T04:35:26.668Z,18.67
2016-09-08T04:36:26.326Z,18.6
2016-09-08T04:37:26.321Z,18.63
2016-09-08T04:38:26.297Z,18.66
2016-09-08T04:39:26.282Z,18.59
2016-09-08T04:40:26.581Z,18.58
2016-09-08T04:41:26.575Z,18.52
2016-09-08T04:42:26.562Z,18.55
2016-09-08T04:43:26.541Z,18.58
2016-09-08T04:44:26.535Z,18.59
2016-09-08T04:45:26.517Z,18.58
2016-09-08T04:46:26.492Z,18.55
2016-09-08T04:47:26.480Z,18.5
2016-09-08T04:48:26.480Z,18.44
2016-09-08T04:49:26.150Z,18.56
2016-09-08T04:50:26.439Z,18.5
2016-09-08T04:51:26.428Z,18.5
2016-09-08T04:52:26.419Z,18.45
2016-09-08T04:53:26.412Z,18.59
2016-09-08T04:54:26.391Z,18.42
2016-09-08T04:55:26.390Z,18.45
2016-09-08T04:56:26.367Z,18.41
2016-09-08T04:57:26.365Z,18.52
2016-09-08T04:58:26.014Z,18.48
2016-09-08T04:59:26.030Z,18.6
2016-09-08T05:00:26.320Z,18.44
2016-09-08T05:01:26.296Z,18.45
2016-09-08T05:02:25.968Z,18.5
2016-09-08T05:03:26.278Z,18.51
2016-09-08T05:04:25.939Z,18.42
2016-09-08T05:05:26.258Z,18.51
2016-09-08T05:06:25.919Z,18.45
2016-09-08T05:07:25.899Z,18.5
2016-09-08T05:08:26.279Z,18.38
2016-09-08T05:09:25.877Z,18.32
2016-09-08T05:10:26.188Z,18.33
2016-09-08T05:11:25.536Z,18.4
2016-09-08T05:12:25.519Z,18.25
2016-09-08T05:13:26.138Z,18.23
2016-09-08T05:14:25.798Z,18.23
2016-09-08T05:15:26.120Z,18.22
2016-09-08T05:16:26.098Z,18.3
2016-09-08T05:17:26.101Z,18.15
2016-09-08T05:18:25.750Z,18.15
2016-09-08T05:19:26.081Z,18.33
2016-09-08T05:20:25.708Z,18.29
2016-09-08T05:21:25.699Z,18.3
2016-09-08T05:22:25.698Z,18.44
2016-09-08T05:23:25.680Z,18.48
2016-09-08T05:24:25.978Z,18.48
2016-09-08T05:25:25.650Z,18.5
2016-09-08T05:26:25.970Z,18.55
2016-09-08T05:27:25.953Z,18.62
2016-09-08T05:28:25.933Z,18.6
2016-09-08T05:29:25.601Z,18.62
2016-09-08T05:30:25.595Z,18.66
2016-09-08T05:31:25.886Z,18.47
2016-09-08T05:32:25.878Z,18.45
2016-09-08T05:33:25.855Z,18.5
2016-09-08T05:34:25.529Z,18.58
2016-09-08T05:35:25.843Z,18.52
2016-09-08T05:36:25.818Z,18.65
2016-09-08T05:37:25.799Z,18.52
2016-09-08T05:38:25.788Z,18.44
2016-09-08T05:39:25.779Z,18.4
2016-09-08T05:40:25.761Z,18.47
2016-09-08T05:41:25.759Z,18.56
2016-09-08T05:42:25.749Z,18.47
2016-09-08T05:43:25.715Z,18.44
2016-09-08T05:44:25.389Z,18.42
2016-09-08T05:45:25.695Z,18.5
2016-09-08T05:46:25.673Z,18.51
2016-09-08T05:47:25.669Z,18.67
2016-09-08T05:48:25.660Z,18.58
2016-09-08T05:49:25.640Z,18.48
2016-09-08T05:50:25.320Z,18.37
2016-09-08T05:51:25.618Z,18.45
2016-09-08T05:52:25.619Z,18.35
2016-09-08T05:53:25.269Z,18.22
2016-09-08T05:54:24.935Z,18.26
2016-09-08T05:55:24.923Z,18.23
2016-09-08T05:56:25.545Z,18.26
2016-09-08T05:57:25.209Z,18.41
2016-09-08T05:58:25.517Z,18.52
2016-09-08T05:59:25.186Z,18.25
2016-09-08T06:00:25.518Z,18.07
2016-09-08T06:01:25.475Z,18.01
2016-09-08T06:02:25.157Z,17.93
2016-09-08T06:03:25.453Z,17.96
2016-09-08T06:04:25.455Z,17.96
2016-09-08T06:05:25.105Z,17.98
2016-09-08T06:06:25.409Z,18.1
2016-09-08T06:07:25.394Z,18.14
2016-09-08T06:08:25.400Z,18.27
2016-09-08T06:09:25.367Z,18.27
2016-09-08T06:10:25.028Z,18.3
2016-09-08T06:11:25.028Z,18.2
2016-09-08T06:12:25.077Z,18.25
2016-09-08T06:13:25.327Z,18.25
2016-09-08T06:14:25.293Z,18.23
2016-09-08T06:15:25.288Z,18.26
2016-09-08T06:16:25.277Z,18.1
2016-09-08T06:17:25.266Z,18.14
2016-09-08T06:18:24.925Z,18.3
2016-09-08T06:19:25.238Z,18.47
2016-09-08T06:20:25.239Z,18.4
2016-09-08T06:21:25.216Z,18.45
2016-09-08T06:22:24.884Z,18.67
2016-09-08T06:23:24.866Z,18.82
2016-09-08T06:24:24.853Z,18.77
2016-09-08T06:25:24.521Z,18.92
2016-09-08T06:26:24.819Z,18.85
2016-09-08T06:27:24.816Z,19.06
2016-09-08T06:28:24.477Z,18.95
2016-09-08T06:29:25.095Z,18.75
2016-09-08T06:30:24.765Z,18.92
2016-09-08T06:31:24.434Z,18.9
2016-09-08T06:32:24.725Z,18.84
2016-09-08T06:33:25.046Z,18.87
2016-09-08T06:34:25.038Z,18.88
2016-09-08T06:35:25.098Z,18.82
2016-09-08T06:36:25.005Z,19.06
2016-09-08T06:37:24.738Z,19.06
2016-09-08T06:38:24.980Z,19.18
2016-09-08T06:39:25.060Z,19.4
2016-09-08T06:40:24.957Z,19.4
2016-09-08T06:41:24.625Z,19.53
2016-09-08T06:42:24.606Z,19.66
2016-09-08T06:43:24.917Z,19.63
2016-09-08T06:44:24.907Z,19.48
2016-09-08T06:45:24.969Z,19.41
2016-09-08T06:46:24.964Z,19.48
2016-09-08T06:47:24.624Z,19.55
2016-09-08T06:48:24.535Z,19.41
2016-09-08T06:49:24.538Z,19.16
2016-09-08T06:50:24.871Z,19.07
2016-09-08T06:51:24.818Z,19.08
2016-09-08T06:52:24.816Z,19.16
2016-09-08T06:53:24.785Z,19.33
2016-09-08T06:54:24.775Z,19.4
2016-09-08T06:55:24.765Z,19.73
2016-09-08T06:56:24.760Z,19.71
2016-09-08T06:57:24.739Z,19.91
2016-09-08T06:58:24.728Z,20.07
2016-09-08T06:59:24.702Z,19.98
2016-09-08T07:00:24.479Z,20.14
2016-09-08T07:01:24.734Z,20.32
2016-09-08T07:02:24.658Z,20.41
2016-09-08T07:03:24.672Z,20.44
2016-09-08T07:04:24.650Z,20.57
2016-09-08T07:05:24.317Z,21.04
2016-09-08T07:06:24.305Z,21.31
2016-09-08T07:07:24.288Z,21.73
2016-09-08T07:08:24.597Z,21.97
2016-09-08T07:09:24.597Z,22.87
2016-09-08T07:10:23.957Z,23.33
2016-09-08T07:11:24.638Z,23.02
2016-09-08T07:12:24.245Z,23.7
2016-09-08T07:13:24.557Z,24.81
2016-09-08T07:14:24.216Z,25.7
2016-09-08T07:15:24.209Z,26.48
2016-09-08T07:16:24.504Z,26.96
2016-09-08T07:17:24.513Z,27.15
2016-09-08T07:18:24.195Z,26.69
2016-09-08T07:19:24.493Z,27.12
2016-09-08T07:20:24.495Z,26.56
2016-09-08T07:21:24.496Z,26.85
2016-09-08T07:22:24.148Z,26.78
2016-09-08T07:23:24.142Z,26.75
2016-09-08T07:24:23.810Z,26.79
2016-09-08T07:25:24.117Z,26.75
2016-09-08T07:26:24.118Z,26.79
2016-09-08T07:27:24.102Z,27.22
2016-09-08T07:28:24.406Z,26.82
2016-09-08T07:29:24.422Z,27.23
2016-09-08T07:30:24.388Z,26.56
2016-09-08T07:31:24.073Z,26.52
2016-09-08T07:32:24.388Z,26.29
2016-09-08T07:33:24.376Z,26.17
2016-09-08T07:34:24.357Z,25.79
2016-09-08T07:35:24.366Z,25.67
2016-09-08T07:36:24.034Z,24.85
2016-09-08T07:37:24.346Z,24.54
2016-09-08T07:38:24.027Z,24.17
2016-09-08T07:39:24.327Z,24.07
2016-09-08T07:40:24.331Z,23.8
2016-09-08T07:41:24.008Z,24.1
2016-09-08T07:42:24.325Z,24.49
2016-09-08T07:43:24.306Z,24.89
2016-09-08T07:44:24.314Z,25.47
2016-09-08T07:45:23.996Z,25.89
2016-09-08T07:46:23.978Z,26.06
2016-09-08T07:47:24.308Z,25.59
2016-09-08T07:48:24.284Z,26.19
2016-09-08T07:49:24.303Z,26.76
2016-09-08T07:50:24.292Z,26.84
2016-09-08T07:51:23.963Z,27.18
2016-09-08T07:52:23.947Z,27.93
2016-09-08T07:53:24.313Z,28.65
2016-09-08T07:54:24.274Z,29.14
2016-09-08T07:55:23.945Z,28.92
2016-09-08T07:56:24.283Z,29.36
2016-09-08T07:57:24.268Z,28.62
2016-09-08T07:58:23.628Z,28.38
2016-09-08T07:59:23.625Z,28.06
2016-09-08T08:00:24.286Z,28.65
2016-09-08T08:01:24.255Z,28.67
2016-09-08T08:02:23.949Z,29.33
2016-09-08T08:03:24.273Z,29.96
2016-09-08T08:04:24.263Z,30.7
2016-09-08T08:05:24.264Z,31.51
2016-09-08T08:06:24.267Z,31.51
2016-09-08T08:07:23.950Z,31.64
2016-09-08T08:08:23.954Z,31.79
2016-09-08T08:09:24.275Z,31.98
2016-09-08T08:10:24.272Z,32.5
2016-09-08T08:11:24.279Z,33.1
2016-09-08T08:12:24.284Z,32.5
2016-09-08T08:13:23.956Z,33.03
2016-09-08T08:14:23.955Z,33.6
2016-09-08T08:15:24.274Z,32.53
2016-09-08T08:16:23.956Z,32.9
2016-09-08T08:17:24.285Z,32.45
2016-09-08T08:18:23.965Z,32.13
2016-09-08T08:19:24.296Z,32.58
2016-09-08T08:20:24.306Z,32.07
2016-09-08T08:21:23.963Z,30.86
2016-09-08T08:22:23.985Z,30.25
2016-09-08T08:23:23.977Z,31.25
2016-09-08T08:24:23.978Z,30.18
2016-09-08T08:25:24.312Z,30.81
2016-09-08T08:26:24.313Z,30.71
2016-09-08T08:27:24.313Z,31.27
2016-09-08T08:28:23.992Z,30.88
2016-09-08T08:29:24.336Z,30.14
2016-09-08T08:30:24.310Z,30.01
2016-09-08T08:31:24.314Z,30.18
2016-09-08T08:32:23.995Z,30.35
2016-09-08T08:33:24.006Z,30.28
2016-09-08T08:34:24.336Z,29.66
2016-09-08T08:35:24.337Z,29.81
2016-09-08T08:36:24.337Z,29.46
2016-09-08T08:37:24.019Z,29.03
2016-09-08T08:38:24.329Z,28.7
2016-09-08T08:39:24.009Z,29.79
2016-09-08T08:40:24.015Z,29.25
2016-09-08T08:41:24.344Z,30.51
2016-09-08T08:42:24.333Z,30.05
2016-09-08T08:43:24.018Z,29.43
2016-09-08T08:44:23.694Z,29.81
2016-09-08T08:45:24.348Z,29.61
2016-09-08T08:46:24.337Z,29.72
2016-09-08T08:47:24.049Z,30.77
2016-09-08T08:48:24.025Z,31.32
2016-09-08T08:49:24.367Z,30.58
2016-09-08T08:50:24.353Z,29.62
2016-09-08T08:51:24.378Z,29.17
2016-09-08T08:52:24.561Z,28.86
2016-09-08T08:53:24.355Z,28.45
2016-09-08T08:54:24.387Z,28.3
2016-09-08T08:55:24.033Z,28.34
2016-09-08T08:56:24.416Z,28.83
2016-09-08T08:57:24.035Z,28.92
2016-09-08T08:58:24.355Z,29.1
2016-09-08T08:59:24.054Z,28.95
2016-09-08T09:00:24.354Z,30.18
2016-09-08T09:01:24.045Z,30.71
2016-09-08T09:02:23.726Z,30.49
2016-09-08T09:03:24.368Z,31
2016-09-08T09:04:24.377Z,31.69
2016-09-08T09:05:24.059Z,31.48
2016-09-08T09:06:24.377Z,30.64
2016-09-08T09:07:24.048Z,29.74
2016-09-08T09:08:24.057Z,29.27
2016-09-08T09:09:24.378Z,30.18
2016-09-08T09:10:24.058Z,31.12
2016-09-08T09:11:23.743Z,32.2
2016-09-08T09:12:24.069Z,32.12
2016-09-08T09:13:23.734Z,31.57
2016-09-08T09:14:24.435Z,31.18
2016-09-08T09:15:24.085Z,30.73
2016-09-08T09:16:24.400Z,30.4
2016-09-08T09:17:24.423Z,29.74
2016-09-08T09:18:24.072Z,29.84
2016-09-08T09:19:24.072Z,30.33
2016-09-08T09:20:24.400Z,30.9
2016-09-08T09:21:24.093Z,30.25
2016-09-08T09:22:24.408Z,30.23
2016-09-08T09:23:24.456Z,29.73
2016-09-08T09:24:24.407Z,30.32
2016-09-08T09:25:24.087Z,29.76
2016-09-08T09:26:23.774Z,30.17
2016-09-08T09:27:24.427Z,30.36
2016-09-08T09:28:24.414Z,30.01
2016-09-08T09:29:24.092Z,29.95
2016-09-08T09:30:24.417Z,30.66
2016-09-08T09:31:24.406Z,31.22
2016-09-08T09:32:24.103Z,31.3
2016-09-08T09:33:24.418Z,31.95
2016-09-08T09:34:24.415Z,32.64
2016-09-08T09:35:24.412Z,33.6
2016-09-08T09:36:24.108Z,33.99
2016-09-08T09:37:24.418Z,33.29
2016-09-08T09:38:24.103Z,30.63
2016-09-08T09:39:23.781Z,30.82
2016-09-08T09:40:24.111Z,30.45
2016-09-08T09:41:24.432Z,30.78
2016-09-08T09:42:24.102Z,31.34
2016-09-08T09:43:24.430Z,32.23
2016-09-08T09:44:24.434Z,32.91
2016-09-08T09:45:24.124Z,32.6
2016-09-08T09:46:24.441Z,32.79
2016-09-08T09:47:24.434Z,32.09
2016-09-08T09:48:23.816Z,32.51
2016-09-08T09:49:24.431Z,31.6
2016-09-08T09:50:24.118Z,30.68
2016-09-08T09:51:24.439Z,30.23
2016-09-08T09:52:24.439Z,30.21
2016-09-08T09:53:24.438Z,30.49
2016-09-08T09:54:24.445Z,30.78
2016-09-08T09:55:24.440Z,32.19
2016-09-08T09:56:24.134Z,33.06
2016-09-08T09:57:24.459Z,32.54
2016-09-08T09:58:24.146Z,30.71
2016-09-08T09:59:24.133Z,31.23
2016-09-08T10:00:24.436Z,31.76
2016-09-08T10:01:24.438Z,32.13
2016-09-08T10:02:24.518Z,32.78
2016-09-08T10:03:24.122Z,31.86
2016-09-08T10:04:24.442Z,30.77
2016-09-08T10:05:24.450Z,30.83
2016-09-08T10:06:24.460Z,30.78
2016-09-08T10:07:23.800Z,31.69
2016-09-08T10:08:24.455Z,32.35
2016-09-08T10:09:24.121Z,33.03
2016-09-08T10:10:23.797Z,33.57
2016-09-08T10:11:24.438Z,33.13
2016-09-08T10:12:24.440Z,33.74
2016-09-08T10:13:24.117Z,34.1
2016-09-08T10:14:24.116Z,34.48
2016-09-08T10:15:24.441Z,34.5
2016-09-08T10:16:24.446Z,33.81
2016-09-08T10:17:24.107Z,33.36
2016-09-08T10:18:24.438Z,33.91
2016-09-08T10:19:24.099Z,33.96
2016-09-08T10:20:24.441Z,34.55
2016-09-08T10:21:24.113Z,35.1
2016-09-08T10:22:24.105Z,34.98
2016-09-08T10:23:24.129Z,33.76
2016-09-08T10:24:24.104Z,33.22
2016-09-08T10:25:24.426Z,31.49
2016-09-08T10:26:24.092Z,31.18
2016-09-08T10:27:24.419Z,32.08
2016-09-08T10:28:24.419Z,32.97
2016-09-08T10:29:24.102Z,33.26
2016-09-08T10:30:24.090Z,33.88
2016-09-08T10:31:24.414Z,33.74
2016-09-08T10:32:24.464Z,34.34
2016-09-08T10:33:24.394Z,34.67
2016-09-08T10:34:24.446Z,33.79
2016-09-08T10:35:24.398Z,33.64
2016-09-08T10:36:24.399Z,33.6
2016-09-08T10:37:24.396Z,33.86
2016-09-08T10:38:24.410Z,33.78
2016-09-08T10:39:24.389Z,34.66
2016-09-08T10:40:24.386Z,34.62
2016-09-08T10:41:24.386Z,34.72
2016-09-08T10:42:24.394Z,34.78
2016-09-08T10:43:24.384Z,34.57
2016-09-08T10:44:24.390Z,34.28
2016-09-08T10:45:24.381Z,34.78
2016-09-08T10:46:24.053Z,34.26
2016-09-08T10:47:24.386Z,34.23
2016-09-08T10:48:24.369Z,33.66
2016-09-08T10:49:24.049Z,33.3
2016-09-08T10:50:24.366Z,33.81
2016-09-08T10:51:24.376Z,33.47
2016-09-08T10:52:24.378Z,33.01
2016-09-08T10:53:24.369Z,33.94
2016-09-08T10:54:24.362Z,33.91
2016-09-08T10:55:24.016Z,34.53
2016-09-08T10:56:24.034Z,33.82
2016-09-08T10:57:24.346Z,33.94
2016-09-08T10:58:24.029Z,34.47
2016-09-08T10:59:23.701Z,34.33
2016-09-08T11:00:24.015Z,33.96
2016-09-08T11:01:24.338Z,33.78
2016-09-08T11:02:24.338Z,34.11
2016-09-08T11:03:24.335Z,34.47
2016-09-08T11:04:24.014Z,33.76
2016-09-08T11:05:24.009Z,33.97
2016-09-08T11:06:24.309Z,33.5
2016-09-08T11:07:24.338Z,33.99
2016-09-08T11:08:23.997Z,34.13
2016-09-08T11:09:23.989Z,33.94
2016-09-08T11:10:24.315Z,34.63
2016-09-08T11:11:24.303Z,35.07
2016-09-08T11:12:23.981Z,34.79
2016-09-08T11:13:24.299Z,34.92
2016-09-08T11:14:24.312Z,35.28
2016-09-08T11:15:23.980Z,35.41
2016-09-08T11:16:24.294Z,35.7
2016-09-08T11:17:24.302Z,35.04
2016-09-08T11:18:24.308Z,34.9
2016-09-08T11:19:24.280Z,35.01
2016-09-08T11:20:23.963Z,33.79
2016-09-08T11:21:23.960Z,34.25
2016-09-08T11:22:24.286Z,34
2016-09-08T11:23:24.277Z,34.15
2016-09-08T11:24:23.630Z,34.35
2016-09-08T11:25:24.266Z,33.66
2016-09-08T11:26:24.269Z,34.03
2016-09-08T11:27:23.651Z,33.96
2016-09-08T11:28:24.258Z,33.41
2016-09-08T11:29:24.258Z,32.9
2016-09-08T11:30:23.937Z,32.39
2016-09-08T11:31:23.939Z,32.54
2016-09-08T11:32:24.249Z,33.06
2016-09-08T11:33:24.327Z,33.28
2016-09-08T11:34:23.929Z,33.76
2016-09-08T11:35:24.243Z,33.47
2016-09-08T11:36:24.245Z,33.99
2016-09-08T11:37:24.240Z,34.53
2016-09-08T11:38:23.911Z,35.01
2016-09-08T11:39:24.211Z,35.17
2016-09-08T11:40:24.279Z,34.82
2016-09-08T11:41:23.893Z,34.59
2016-09-08T11:42:23.891Z,34
2016-09-08T11:43:24.232Z,34.28
2016-09-08T11:44:24.214Z,34.08
2016-09-08T11:45:23.879Z,34.06
2016-09-08T11:46:24.199Z,34.82
2016-09-08T11:47:24.209Z,35.02
2016-09-08T11:48:23.879Z,34.82
2016-09-08T11:49:24.206Z,35.04
2016-09-08T11:50:24.211Z,35.57
2016-09-08T11:51:24.197Z,35.85
2016-09-08T11:52:23.879Z,36.04
2016-09-08T11:53:23.862Z,36.04
2016-09-08T11:54:24.190Z,36.14
2016-09-08T11:55:23.848Z,36.25
2016-09-08T11:56:24.186Z,36.54
2016-09-08T11:57:24.187Z,36.02
2016-09-08T11:58:24.167Z,36.25
2016-09-08T11:59:24.191Z,35.88
2016-09-08T12:00:23.848Z,35.38
2016-09-08T12:01:23.537Z,35.44
2016-09-08T12:02:24.167Z,34.86
2016-09-08T12:03:24.177Z,34.94
2016-09-08T12:04:24.183Z,35.12
2016-09-08T12:05:24.161Z,35
2016-09-08T12:06:24.155Z,34.98
2016-09-08T12:07:23.853Z,34.5
2016-09-08T12:08:23.834Z,34.47
2016-09-08T12:09:24.136Z,34.94
2016-09-08T12:10:24.148Z,34.64
2016-09-08T12:11:24.159Z,34.64
2016-09-08T12:12:23.827Z,34.79
2016-09-08T12:13:24.139Z,35.19
2016-09-08T12:14:24.117Z,35.34
2016-09-08T12:15:24.143Z,35.57
2016-09-08T12:16:24.118Z,35.91
2016-09-08T12:17:23.806Z,35.81
2016-09-08T12:18:23.805Z,35.13
2016-09-08T12:19:24.119Z,34.92
2016-09-08T12:20:24.119Z,34.34
2016-09-08T12:21:23.487Z,34.47
2016-09-08T12:22:24.117Z,34.57
2016-09-08T12:23:23.785Z,34.75
2016-09-08T12:24:23.787Z,35
2016-09-08T12:25:23.463Z,34.95
2016-09-08T12:26:23.766Z,34.48
2016-09-08T12:27:24.097Z,34.42
2016-09-08T12:28:24.082Z,34.42
2016-09-08T12:29:23.775Z,33.85
2016-09-08T12:30:23.766Z,33.76
2016-09-08T12:31:24.077Z,34.11
2016-09-08T12:32:24.087Z,34.76
2016-09-08T12:33:23.767Z,34.11
2016-09-08T12:34:24.068Z,34.66
2016-09-08T12:35:24.085Z,34.85
2016-09-08T12:36:24.068Z,34.59
2016-09-08T12:37:24.067Z,34.48
2016-09-08T12:38:24.071Z,34.13
2016-09-08T12:39:23.749Z,34.34
2016-09-08T12:40:23.728Z,34.1
2016-09-08T12:41:23.734Z,34.47
2016-09-08T12:42:23.731Z,34.29
2016-09-08T12:43:23.735Z,34.9
2016-09-08T12:44:23.719Z,35.29
2016-09-08T12:45:23.721Z,35.63
2016-09-08T12:46:24.039Z,36.06
2016-09-08T12:47:23.713Z,36.27
2016-09-08T12:48:24.040Z,35.81
2016-09-08T12:49:23.711Z,35.39
2016-09-08T12:50:24.030Z,35.66
2016-09-08T12:51:24.010Z,34.79
2016-09-08T12:52:23.696Z,34.53
2016-09-08T12:53:24.037Z,34.9
2016-09-08T12:54:24.015Z,34.42
2016-09-08T12:55:23.689Z,33.73